createdAt,value
2023-01-17T00:00:53.619Z,30.00
2023-01-17T00:03:29.564Z,29.10
2023-01-17T00:06:24.617Z,26.60
2023-01-17T00:09:16.731Z,27.00
2023-01-17T00:11:50.283Z,29.10
2023-01-17T00:14:23.617Z,26.60
2023-01-17T00:16:57.751Z,22.10
2023-01-17T00:19:49.901Z,28.40
2023-01-17T00:22:51.675Z,25.40
2023-01-17T00:25:53.319Z,27.60
2023-01-17T00:28:27.116Z,24.80
2023-01-17T00:31:00.898Z,31.50
2023-01-17T00:33:35.022Z,27.20
2023-01-17T00:36:08.990Z,27.90
2023-01-17T00:38:42.394Z,27.80
2023-01-17T00:41:16.623Z,27.00
2023-01-17T00:44:07.759Z,29.50
2023-01-17T00:46:58.886Z,27.80
2023-01-17T00:49:50.081Z,30.50
2023-01-17T00:52:41.323Z,29.50
2023-01-17T00:55:32.088Z,29.90
2023-01-17T00:58:32.647Z,30.10
2023-01-17T01:01:27.620Z,31.10
2023-01-17T01:04:18.553Z,29.00
2023-01-17T01:07:09.751Z,26.60
2023-01-17T01:10:01.176Z,25.10
2023-01-17T01:12:52.461Z,28.50
2023-01-17T01:15:43.992Z,24.70
2023-01-17T01:18:34.989Z,28.40
2023-01-17T01:21:26.794Z,26.80
2023-01-17T01:24:18.522Z,27.00
2023-01-17T01:27:10.174Z,22.40
2023-01-17T01:30:01.209Z,22.20
2023-01-17T01:32:56.313Z,27.80
2023-01-17T01:35:28.996Z,27.10
2023-01-17T01:38:03.736Z,24.50
2023-01-17T01:40:36.149Z,29.30
2023-01-17T01:43:12.700Z,32.60
2023-01-17T01:45:50.619Z,29.80
2023-01-17T01:48:38.816Z,30.50
2023-01-17T01:51:17.985Z,30.30
2023-01-17T01:53:54.351Z,26.80
2023-01-17T01:56:28.002Z,27.70
2023-01-17T01:59:03.652Z,28.50
2023-01-17T02:01:42.843Z,25.80
2023-01-17T02:04:16.545Z,25.10
2023-01-17T02:07:19.202Z,31.70
2023-01-17T02:09:52.012Z,28.20
2023-01-17T02:12:29.591Z,31.50
2023-01-17T02:15:04.065Z,27.70
2023-01-17T02:18:04.758Z,34.00
2023-01-17T02:21:00.160Z,32.70
2023-01-17T02:23:57.537Z,31.40
2023-01-17T02:26:56.174Z,28.50
2023-01-17T02:29:46.192Z,30.60
2023-01-17T02:32:37.254Z,29.10
2023-01-17T02:35:18.758Z,32.10
2023-01-17T02:38:05.476Z,28.00
2023-01-17T02:40:44.345Z,27.90
2023-01-17T02:43:20.578Z,33.40
2023-01-17T02:45:53.386Z,27.00
2023-01-17T02:48:28.996Z,23.90
2023-01-17T02:51:32.766Z,29.20
2023-01-17T02:54:24.020Z,30.70
2023-01-17T02:57:22.801Z,28.90
2023-01-17T03:00:27.987Z,27.80
2023-01-17T03:03:30.425Z,29.50
2023-01-17T03:06:20.647Z,27.90
2023-01-17T03:08:55.173Z,30.90
2023-01-17T03:11:28.358Z,29.20
2023-01-17T03:14:01.729Z,30.30
2023-01-17T03:16:35.710Z,30.20
2023-01-17T03:19:10.265Z,25.10
2023-01-17T03:21:43.520Z,28.40
2023-01-17T03:24:16.674Z,26.20
2023-01-17T03:26:49.524Z,25.70
2023-01-17T03:29:22.026Z,30.40
2023-01-17T03:31:54.750Z,28.90
2023-01-17T03:34:27.647Z,27.70
2023-01-17T03:37:00.674Z,28.30
2023-01-17T03:39:33.297Z,26.80
2023-01-17T03:42:05.855Z,31.30
2023-01-17T03:44:38.461Z,28.70
2023-01-17T03:47:14.034Z,28.20
2023-01-17T03:49:46.828Z,29.30
2023-01-17T03:52:19.988Z,29.00
2023-01-17T03:54:52.428Z,29.70
2023-01-17T03:57:25.030Z,33.10
2023-01-17T03:59:57.853Z,32.00
2023-01-17T04:02:30.727Z,31.50
2023-01-17T04:05:03.976Z,29.90
2023-01-17T04:07:36.567Z,27.30
2023-01-17T04:10:09.711Z,28.70
2023-01-17T04:12:42.512Z,29.30
2023-01-17T04:15:15.490Z,27.10
2023-01-17T04:17:48.329Z,28.70
2023-01-17T04:20:36.080Z,28.20
2023-01-17T04:23:09.252Z,29.80
2023-01-17T04:25:42.152Z,28.50
2023-01-17T04:28:15.028Z,24.50
2023-01-17T04:30:47.768Z,26.90
2023-01-17T04:33:20.523Z,25.70
2023-01-17T04:35:54.733Z,26.60
2023-01-17T04:38:28.017Z,27.90
2023-01-17T04:41:01.192Z,26.50
2023-01-17T04:43:35.377Z,28.90
2023-01-17T04:46:10.609Z,29.90
2023-01-17T04:48:43.770Z,29.80
2023-01-17T04:51:17.077Z,29.10
2023-01-17T04:53:50.402Z,24.90
2023-01-17T04:56:23.358Z,26.80
2023-01-17T04:58:58.741Z,27.30
2023-01-17T05:01:31.813Z,26.10
2023-01-17T05:04:04.518Z,26.60
2023-01-17T05:06:37.304Z,27.60
2023-01-17T05:09:10.106Z,27.60
2023-01-17T05:11:43.192Z,27.60
2023-01-17T05:14:15.999Z,26.90
2023-01-17T05:16:48.735Z,26.80
2023-01-17T05:19:21.694Z,26.40
2023-01-17T05:21:54.836Z,28.60
2023-01-17T05:24:27.891Z,25.40
2023-01-17T05:27:03.510Z,29.50
2023-01-17T05:29:37.428Z,25.40
2023-01-17T05:32:11.859Z,26.20
2023-01-17T05:34:44.880Z,26.40
2023-01-17T05:37:17.783Z,26.70
2023-01-17T05:39:50.973Z,23.30
2023-01-17T05:42:24.062Z,29.50
2023-01-17T05:44:57.035Z,27.80
2023-01-17T05:47:30.581Z,29.20
2023-01-17T05:50:04.076Z,25.10
2023-01-17T05:52:37.560Z,25.80
2023-01-17T05:55:10.963Z,27.60
2023-01-17T05:57:44.832Z,28.40
2023-01-17T06:00:18.984Z,24.20
2023-01-17T06:02:55.020Z,23.00
2023-01-17T06:05:29.511Z,25.60
2023-01-17T06:08:03.524Z,28.00
2023-01-17T06:10:37.456Z,24.30
2023-01-17T06:13:23.912Z,21.60
2023-01-17T06:16:05.125Z,23.60
2023-01-17T06:18:38.288Z,23.60
2023-01-17T06:21:12.577Z,27.10
2023-01-17T06:23:45.737Z,23.80
2023-01-17T06:26:18.791Z,23.20
2023-01-17T06:28:52.600Z,18.80
2023-01-17T06:31:26.584Z,29.00
2023-01-17T06:34:03.951Z,35.30
2023-01-17T06:36:37.608Z,35.60
2023-01-17T06:39:14.857Z,32.50
2023-01-17T06:41:49.526Z,23.60
2023-01-17T06:44:22.603Z,24.10
2023-01-17T06:46:56.564Z,25.70
2023-01-17T06:49:30.788Z,21.80
2023-01-17T06:52:04.631Z,23.60
2023-01-17T06:54:37.539Z,23.00
2023-01-17T06:57:10.732Z,24.30
2023-01-17T06:59:44.541Z,23.70
2023-01-17T07:02:17.793Z,23.70
2023-01-17T07:04:50.870Z,20.70
2023-01-17T07:07:25.713Z,29.60
2023-01-17T07:09:59.728Z,26.00
2023-01-17T07:12:33.734Z,23.40
2023-01-17T07:15:07.177Z,24.00
2023-01-17T07:17:40.641Z,29.60
2023-01-17T07:20:14.272Z,27.50
2023-01-17T07:22:50.036Z,28.50
2023-01-17T07:25:23.354Z,27.10
2023-01-17T07:27:59.268Z,26.80
2023-01-17T07:30:32.284Z,25.70
2023-01-17T07:33:05.943Z,25.20
2023-01-17T07:35:39.874Z,22.30
2023-01-17T07:38:18.275Z,25.90
2023-01-17T07:40:52.965Z,25.00
2023-01-17T07:43:26.796Z,21.50
2023-01-17T07:46:02.130Z,25.50
2023-01-17T07:48:36.298Z,24.60
2023-01-17T07:51:10.355Z,22.00
2023-01-17T07:53:44.044Z,24.90
2023-01-17T07:56:17.438Z,28.80
2023-01-17T07:58:50.599Z,26.50
2023-01-17T08:01:24.802Z,31.20
2023-01-17T08:03:58.963Z,25.30
2023-01-17T08:06:32.438Z,27.90
2023-01-17T08:09:06.353Z,24.50
2023-01-17T08:11:39.435Z,28.60
2023-01-17T08:14:12.690Z,25.20
2023-01-17T08:16:46.321Z,27.90
2023-01-17T08:19:22.098Z,31.90
2023-01-17T08:21:56.218Z,35.40
2023-01-17T08:24:31.355Z,34.00
2023-01-17T08:27:05.350Z,26.00
2023-01-17T08:29:42.410Z,24.90
2023-01-17T08:32:16.693Z,27.80
2023-01-17T08:34:50.186Z,28.00
2023-01-17T08:37:26.090Z,25.10
2023-01-17T08:39:59.787Z,26.00
2023-01-17T08:42:39.949Z,27.90
2023-01-17T08:45:15.468Z,24.50
2023-01-17T08:47:48.761Z,25.50
2023-01-17T08:50:22.134Z,26.00
2023-01-17T08:53:01.748Z,26.00
2023-01-17T08:55:39.614Z,24.80
2023-01-17T08:58:14.564Z,18.40
2023-01-17T09:00:48.142Z,27.50
2023-01-17T09:03:22.011Z,24.50
2023-01-17T09:06:06.627Z,26.20
2023-01-17T09:08:40.598Z,22.80
2023-01-17T09:11:16.420Z,25.00
2023-01-17T09:13:50.573Z,21.50
2023-01-17T09:16:24.191Z,21.80
2023-01-17T09:18:59.130Z,21.50
2023-01-17T09:21:32.472Z,18.30
2023-01-17T09:24:05.803Z,19.00
2023-01-17T09:26:39.510Z,18.40
2023-01-17T09:29:14.643Z,16.90
2023-01-17T09:31:48.963Z,20.40
2023-01-17T09:34:25.095Z,21.20
2023-01-17T09:37:00.049Z,22.60
2023-01-17T09:39:33.876Z,24.60
2023-01-17T09:42:33.210Z,28.10
2023-01-17T09:45:07.718Z,16.60
2023-01-17T09:47:52.479Z,15.50
2023-01-17T09:50:40.326Z,18.70
2023-01-17T09:53:24.763Z,20.50
2023-01-17T09:55:57.490Z,18.40
2023-01-17T09:58:45.876Z,21.80
2023-01-17T10:01:52.681Z,19.10
2023-01-17T10:04:44.180Z,19.80
2023-01-17T10:07:23.695Z,19.40
2023-01-17T10:10:21.585Z,21.70
2023-01-17T10:13:24.125Z,20.20
2023-01-17T10:16:04.809Z,31.00
2023-01-17T10:19:10.554Z,25.90
2023-01-17T10:22:02.689Z,23.60
2023-01-17T10:24:53.414Z,20.10
2023-01-17T10:27:33.456Z,18.60
2023-01-17T10:30:32.556Z,17.40
2023-01-17T10:33:29.675Z,19.40
2023-01-17T10:36:10.683Z,24.00
2023-01-17T10:38:47.917Z,21.30
2023-01-17T10:41:39.197Z,24.30
2023-01-17T10:44:23.840Z,27.70
2023-01-17T10:47:28.992Z,24.60
2023-01-17T10:50:05.709Z,11.70
2023-01-17T10:53:05.655Z,16.00
2023-01-17T10:55:55.726Z,13.50
2023-01-17T10:58:29.139Z,17.20
2023-01-17T11:01:04.733Z,22.70
2023-01-17T11:03:38.323Z,18.00
2023-01-17T11:06:23.621Z,17.50
2023-01-17T11:09:04.432Z,15.10
2023-01-17T11:11:49.706Z,16.30
2023-01-17T11:14:30.120Z,15.60
2023-01-17T11:17:05.477Z,12.70
2023-01-17T11:19:40.037Z,11.90
2023-01-17T11:22:18.139Z,14.00
2023-01-17T11:24:57.108Z,14.50
2023-01-17T11:27:42.589Z,15.70
2023-01-17T11:30:21.048Z,13.80
2023-01-17T11:32:55.942Z,15.00
2023-01-17T11:35:46.723Z,15.10
2023-01-17T11:38:24.489Z,15.30
2023-01-17T11:41:18.567Z,14.90
2023-01-17T11:44:01.807Z,16.70
2023-01-17T11:46:35.311Z,16.90
2023-01-17T11:49:25.495Z,15.40
2023-01-17T11:51:59.274Z,18.10
2023-01-17T11:54:46.842Z,14.90
2023-01-17T11:57:35.701Z,15.80
2023-01-17T12:00:26.235Z,14.80
2023-01-17T12:03:42.699Z,14.20
2023-01-17T12:06:44.775Z,18.30
2023-01-17T12:09:38.827Z,14.70
2023-01-17T12:12:44.641Z,14.20
2023-01-17T12:15:39.315Z,16.10
2023-01-17T12:18:25.639Z,14.40
2023-01-17T12:21:24.999Z,14.80
2023-01-17T12:24:21.526Z,16.10
2023-01-17T12:27:09.550Z,13.50
2023-01-17T12:30:06.176Z,15.40
2023-01-17T12:33:04.322Z,13.50
2023-01-17T12:35:51.324Z,16.50
2023-01-17T12:38:40.657Z,17.00
2023-01-17T12:41:33.205Z,15.90
2023-01-17T12:44:07.661Z,13.40
2023-01-17T12:46:46.194Z,17.40
2023-01-17T12:49:41.983Z,16.90
2023-01-17T12:52:21.129Z,13.60
2023-01-17T12:55:14.218Z,15.30
2023-01-17T12:57:59.322Z,21.90
2023-01-17T13:00:35.413Z,17.20
2023-01-17T13:03:44.739Z,18.10
2023-01-17T13:06:46.387Z,20.00
2023-01-17T13:09:23.906Z,15.10
2023-01-17T13:12:20.743Z,15.50
2023-01-17T13:15:02.913Z,16.30
2023-01-17T13:17:49.047Z,16.20
2023-01-17T13:20:49.587Z,22.30
2023-01-17T13:23:36.684Z,16.50
2023-01-17T13:26:23.069Z,18.60
2023-01-17T13:29:19.872Z,14.80
2023-01-17T13:32:22.588Z,16.50
2023-01-17T13:35:21.094Z,14.50
2023-01-17T13:38:24.202Z,13.90
2023-01-17T13:41:12.698Z,14.30
2023-01-17T13:44:09.228Z,14.40
2023-01-17T13:46:59.331Z,13.60
2023-01-17T13:49:37.704Z,15.70
2023-01-17T13:52:24.278Z,12.50
2023-01-17T13:55:01.976Z,12.50
2023-01-17T13:57:48.291Z,14.20
2023-01-17T14:00:29.494Z,12.80
2023-01-17T14:03:02.460Z,12.40
2023-01-17T14:05:41.827Z,15.20
2023-01-17T14:08:22.517Z,14.20
2023-01-17T14:11:13.016Z,15.90
2023-01-17T14:13:46.781Z,13.40
2023-01-17T14:16:25.592Z,14.20
2023-01-17T14:18:59.356Z,17.30
2023-01-17T14:21:36.577Z,15.40
2023-01-17T14:24:20.547Z,16.60
2023-01-17T14:27:24.160Z,20.20
2023-01-17T14:30:04.704Z,17.30
2023-01-17T14:32:41.060Z,15.70
2023-01-17T14:35:25.117Z,18.10
2023-01-17T14:38:06.351Z,19.70
2023-01-17T14:40:42.073Z,19.80
2023-01-17T14:43:20.768Z,34.70
2023-01-17T14:46:03.644Z,31.50
2023-01-17T14:48:42.036Z,24.80
2023-01-17T14:51:21.036Z,20.20
2023-01-17T14:54:02.984Z,24.00
2023-01-17T14:56:36.192Z,17.90
2023-01-17T14:59:17.599Z,18.80
2023-01-17T15:02:08.023Z,16.50
2023-01-17T15:04:44.314Z,14.50
2023-01-17T15:07:21.045Z,13.60
2023-01-17T15:09:54.718Z,12.80
2023-01-17T15:12:28.184Z,14.60
2023-01-17T15:15:02.815Z,13.30
2023-01-17T15:17:36.005Z,11.10
2023-01-17T15:20:18.167Z,13.10
2023-01-17T15:22:51.886Z,13.70
2023-01-17T15:25:25.798Z,14.60
2023-01-17T15:27:59.468Z,16.00
2023-01-17T15:30:32.935Z,16.80
2023-01-17T15:33:06.292Z,17.70
2023-01-17T15:35:39.117Z,18.10
2023-01-17T15:38:17.411Z,18.40
2023-01-17T15:40:50.480Z,18.00
2023-01-17T15:43:36.202Z,17.60
2023-01-17T15:46:09.105Z,16.30
2023-01-17T15:48:46.426Z,17.10
2023-01-17T15:51:38.879Z,20.30
2023-01-17T15:54:53.425Z,17.00
2023-01-17T15:57:40.790Z,17.00
2023-01-17T16:00:15.456Z,17.10
2023-01-17T16:02:55.919Z,15.80
2023-01-17T16:05:31.302Z,14.70
2023-01-17T16:08:07.607Z,21.30
2023-01-17T16:10:41.671Z,20.80
2023-01-17T16:13:15.865Z,30.30
2023-01-17T16:15:49.356Z,25.70
2023-01-17T16:18:26.213Z,24.20
2023-01-17T16:21:15.196Z,28.60
2023-01-17T16:23:49.025Z,27.80
2023-01-17T16:26:22.309Z,24.00
2023-01-17T16:28:55.658Z,18.90
2023-01-17T16:31:28.995Z,21.40
2023-01-17T16:34:02.561Z,27.30
2023-01-17T16:36:37.381Z,23.10
2023-01-17T16:39:13.806Z,35.40
2023-01-17T16:41:46.937Z,17.20
2023-01-17T16:44:20.447Z,29.30
2023-01-17T16:46:53.366Z,22.50
2023-01-17T16:49:26.359Z,19.90
2023-01-17T16:51:59.785Z,22.40
2023-01-17T16:54:32.411Z,19.50
2023-01-17T16:57:05.585Z,17.70
2023-01-17T16:59:50.138Z,19.80
2023-01-17T17:02:25.554Z,18.70
2023-01-17T17:04:58.800Z,20.80
2023-01-17T17:07:31.702Z,22.00
2023-01-17T17:10:06.011Z,19.90
2023-01-17T17:12:39.055Z,19.80
2023-01-17T17:15:13.567Z,21.30
2023-01-17T17:17:48.293Z,22.50
2023-01-17T17:20:21.141Z,18.00
2023-01-17T17:22:54.350Z,20.50
2023-01-17T17:25:28.103Z,19.90
2023-01-17T17:28:01.456Z,21.40
2023-01-17T17:30:36.660Z,18.20
2023-01-17T17:33:11.674Z,18.40
2023-01-17T17:35:44.890Z,18.40
2023-01-17T17:38:17.781Z,16.60
2023-01-17T17:40:51.043Z,18.30
2023-01-17T17:43:26.402Z,23.70
2023-01-17T17:45:59.769Z,21.60
2023-01-17T17:48:32.586Z,24.70
2023-01-17T17:51:06.084Z,24.20
2023-01-17T17:53:38.966Z,24.30
2023-01-17T17:56:11.850Z,24.20
2023-01-17T17:58:46.167Z,25.70
2023-01-17T18:01:19.365Z,25.40
2023-01-17T18:03:53.253Z,25.50
2023-01-17T18:06:26.647Z,29.70
2023-01-17T18:09:00.134Z,25.80
2023-01-17T18:11:34.011Z,21.60
2023-01-17T18:14:10.015Z,24.10
2023-01-17T18:16:45.214Z,27.40
2023-01-17T18:19:23.270Z,27.30
2023-01-17T18:21:57.114Z,31.30
2023-01-17T18:24:30.059Z,32.90
2023-01-17T18:27:03.033Z,33.90
2023-01-17T18:29:36.189Z,31.00
2023-01-17T18:32:09.463Z,33.10
2023-01-17T18:34:42.952Z,33.60
2023-01-17T18:37:16.455Z,27.90
2023-01-17T18:39:49.718Z,25.40
2023-01-17T18:42:23.443Z,25.30
2023-01-17T18:44:56.300Z,23.00
2023-01-17T18:47:30.650Z,25.50
2023-01-17T18:50:03.484Z,25.40
2023-01-17T18:52:37.781Z,23.60
2023-01-17T18:55:10.871Z,23.40
2023-01-17T18:57:45.161Z,20.10
2023-01-17T19:00:19.982Z,21.20
2023-01-17T19:02:52.922Z,22.90
2023-01-17T19:05:25.921Z,20.10
2023-01-17T19:07:59.211Z,20.60
2023-01-17T19:10:32.332Z,18.70
2023-01-17T19:13:05.476Z,19.60
2023-01-17T19:15:38.585Z,20.60
2023-01-17T19:18:12.043Z,21.50
2023-01-17T19:20:45.305Z,21.50
2023-01-17T19:23:18.506Z,21.10
2023-01-17T19:25:58.990Z,20.50
2023-01-17T19:28:34.119Z,19.90
2023-01-17T19:31:13.804Z,20.10
2023-01-17T19:33:48.742Z,20.20
2023-01-17T19:36:26.661Z,21.20
2023-01-17T19:39:05.852Z,21.10
2023-01-17T19:41:45.276Z,20.40
2023-01-17T19:44:18.675Z,19.90
2023-01-17T19:46:51.580Z,21.30
2023-01-17T19:49:25.229Z,17.80
2023-01-17T19:51:58.264Z,18.10
2023-01-17T19:54:31.594Z,19.20
2023-01-17T19:57:05.157Z,16.20
2023-01-17T19:59:38.351Z,20.00
2023-01-17T20:02:12.723Z,19.60
2023-01-17T20:04:46.531Z,19.20
2023-01-17T20:07:19.330Z,22.90
2023-01-17T20:09:52.306Z,21.90
2023-01-17T20:12:25.290Z,24.30
2023-01-17T20:14:58.567Z,24.20
2023-01-17T20:17:34.497Z,24.10
2023-01-17T20:20:11.751Z,22.00
2023-01-17T20:22:46.069Z,23.80
2023-01-17T20:25:18.941Z,21.50
2023-01-17T20:27:51.706Z,21.20
2023-01-17T20:30:32.683Z,23.30
2023-01-17T20:33:05.508Z,21.80
2023-01-17T20:35:38.358Z,25.40
2023-01-17T20:38:12.383Z,23.50
2023-01-17T20:40:45.600Z,26.30
2023-01-17T20:43:19.386Z,22.90
2023-01-17T20:45:59.059Z,25.40
2023-01-17T20:48:32.219Z,24.40
2023-01-17T20:51:10.923Z,24.20
2023-01-17T20:53:45.289Z,23.50
2023-01-17T20:56:19.335Z,22.90
2023-01-17T20:58:55.020Z,20.30
2023-01-17T21:01:28.432Z,23.60
2023-01-17T21:04:01.749Z,22.10
2023-01-17T21:06:34.889Z,22.10
2023-01-17T21:09:09.105Z,22.00
2023-01-17T21:11:42.344Z,21.30
2023-01-17T21:14:16.279Z,23.00
2023-01-17T21:16:50.703Z,19.60
2023-01-17T21:19:24.268Z,20.30
2023-01-17T21:21:57.832Z,21.70
2023-01-17T21:24:31.033Z,19.40
2023-01-17T21:27:03.998Z,19.10
2023-01-17T21:29:37.143Z,19.00
2023-01-17T21:32:10.668Z,17.40
2023-01-17T21:34:44.724Z,21.30
2023-01-17T21:37:17.695Z,18.00
2023-01-17T21:39:55.369Z,19.10
2023-01-17T21:42:28.615Z,18.60
2023-01-17T21:45:01.915Z,20.20
2023-01-17T21:47:35.025Z,18.90
2023-01-17T21:50:09.943Z,19.10
2023-01-17T21:52:42.921Z,19.70
2023-01-17T21:55:34.371Z,18.70
2023-01-17T21:58:33.046Z,17.10
2023-01-17T22:01:26.078Z,15.10
2023-01-17T22:04:00.731Z,18.90
2023-01-17T22:06:36.215Z,17.00
2023-01-17T22:09:10.021Z,18.50
2023-01-17T22:11:42.818Z,22.00
2023-01-17T22:14:15.729Z,20.50
2023-01-17T22:16:50.076Z,19.30
2023-01-17T22:19:23.366Z,18.20
2023-01-17T22:21:57.449Z,18.30
2023-01-17T22:24:30.567Z,16.80
2023-01-17T22:27:03.550Z,19.60
2023-01-17T22:29:36.911Z,17.70
2023-01-17T22:32:10.207Z,21.90
2023-01-17T22:34:42.775Z,17.80
2023-01-17T22:37:15.912Z,21.30
2023-01-17T22:39:49.368Z,21.40
2023-01-17T22:42:22.481Z,17.20
2023-01-17T22:44:55.267Z,19.00
2023-01-17T22:47:28.117Z,21.40
2023-01-17T22:50:01.010Z,16.80
2023-01-17T22:52:34.342Z,20.70
2023-01-17T22:55:07.582Z,24.00
2023-01-17T22:57:40.470Z,21.10
2023-01-17T23:00:14.924Z,20.60
2023-01-17T23:02:47.660Z,22.10
2023-01-17T23:05:20.905Z,21.20
2023-01-17T23:07:53.997Z,19.70
2023-01-17T23:10:45.445Z,22.90
2023-01-17T23:13:18.281Z,22.50
2023-01-17T23:16:10.041Z,19.20
2023-01-17T23:19:01.533Z,21.70
2023-01-17T23:21:55.017Z,21.20
2023-01-17T23:24:28.309Z,21.00
2023-01-17T23:27:20.460Z,25.00
2023-01-17T23:29:53.094Z,22.10
2023-01-17T23:32:26.060Z,19.00
2023-01-17T23:34:58.807Z,18.90
2023-01-17T23:37:51.324Z,20.80
2023-01-17T23:40:24.224Z,21.40
2023-01-17T23:43:15.748Z,19.20
2023-01-17T23:45:48.745Z,21.30
2023-01-17T23:48:24.235Z,21.20
2023-01-17T23:51:11.130Z,20.80
2023-01-17T23:53:43.944Z,19.40
2023-01-17T23:56:25.702Z,20.20
2023-01-17T23:58:59.201Z,17.30
